Impacts METAR Board
IDs:

KSFO - San Francisco Intl, CA, US

Updated at: 1200 UTC 13 Dec 2018
Potential Impact None Slight Moderate High
Time 13/00Z 13/01Z 13/02Z 13/03Z 13/04Z 13/05Z 13/06Z 13/07Z 13/08Z 13/09Z 13/10Z 13/11Z 13/12Z
Temp58 55 56 54 52 53 50 48 49 47 46 47 44
Dewpt45 46 44 44 46 41 41 41 40 39 40 39 38
Altim30.23 30.25 30.25 30.26 30.28 30.27 30.28 30.28 30.28 30.27 30.27 30.27 30.27
VIS10 10 10 10 10 10 10 10 10 10 10 10 10
CIG200 -- -- -- -- -- -- -- -- -- -- -- --
CoverBKNSCTFEWFEWFEWCLRCLRCLRFEWFEWFEWFEWFEW
FltCatVFRVFRVFRVFRVFRVFRVFRVFRVFRVFRVFRVFRVFR
WX--------------------------
WDir2602802702802800017000000
WSpd10 11 10 8 11 0 0 4 0 0 0 0 0
WGst-- -- -- -- -- -- -- -- -- -- -- -- --
Raw hourly METARs
KSFO 122356Z 26010KT 10SM BKN200 14/07 A3023 RMK AO2 WSHFT 2243 SLP235 T01440072 10167 20100 56003
KSFO 130056Z 28011KT 10SM SCT200 13/08 A3025 RMK AO2 SLP242 T01280078
KSFO 130156Z 27010KT 10SM FEW200 13/07 A3025 RMK AO2 SLP242 T01330067
KSFO 130256Z 28008KT 10SM FEW200 12/07 A3026 RMK AO2 SLP248 T01220067 51013
KSFO 130356Z 28011KT 10SM FEW200 11/08 A3028 RMK AO2 SLP253 T01110078
KSFO 130456Z 00000KT 10SM CLR 12/05 A3027 RMK AO2 SLP249 T01170050
KSFO 130556Z 00000KT 10SM CLR 10/05 A3028 RMK AO2 SLP253 T01000050 10156 20100 51006
KSFO 130656Z 17004KT 10SM CLR 09/05 A3028 RMK AO2 SLP254 T00890050
KSFO 130756Z 00000KT 10SM FEW200 09/04 A3028 RMK AO2 SLP253 T00940044 401670083
KSFO 130856Z 00000KT 10SM FEW200 08/04 A3027 RMK AO2 SLP250 T00830039 58003
KSFO 130956Z 00000KT 10SM FEW200 08/04 A3027 RMK AO2 SLP249 T00780044
KSFO 131056Z 00000KT 10SM FEW200 08/04 A3027 RMK AO2 SLP249 T00830039
KSFO 131156Z 00000KT 10SM FEW200 07/03 A3027 RMK AO2 SLP249 T00670033 10106 20067 56002



Page loaded:  12:59 UTC  |   04:59 AM Pacific  |   05:59 AM Mountain  |   06:59 AM Central  |   07:59 AM Eastern

 

ADVISORIES

FORECASTS

FORECASTS

OBSERVATIONS

USER TOOLS

ABOUT US